sensor_id;sensor_type;location;lat;lon;timestamp;temperature;humidity
66596;SHT31;59017;49.252;18.838;2022-07-12T00:33:26;22.41;47.56
66596;SHT31;59017;49.252;18.838;2022-07-12T00:35:52;22.44;48.01
66596;SHT31;59017;49.252;18.838;2022-07-12T00:38:19;22.41;47.59
66596;SHT31;59017;49.252;18.838;2022-07-12T00:48:09;22.41;47.71
66596;SHT31;59017;49.252;18.838;2022-07-12T02:29:41;22.37;48.08
66596;SHT31;59017;49.252;18.838;2022-07-12T02:32:11;22.37;47.99
66596;SHT31;59017;49.252;18.838;2022-07-12T03:33:21;22.30;47.94
66596;SHT31;59017;49.252;18.838;2022-07-12T03:35:47;22.25;47.99
66596;SHT31;59017;49.252;18.838;2022-07-12T03:38:25;22.25;48.02
66596;SHT31;59017;49.252;18.838;2022-07-12T03:40:53;22.25;48.29
66596;SHT31;59017;49.252;18.838;2022-07-12T03:43:20;22.24;48.29
66596;SHT31;59017;49.252;18.838;2022-07-12T03:45:51;22.21;48.28
66596;SHT31;59017;49.252;18.838;2022-07-12T03:48:23;22.24;48.22
66596;SHT31;59017;49.252;18.838;2022-07-12T03:50:58;22.24;48.21
66596;SHT31;59017;49.252;18.838;2022-07-12T03:53:29;22.24;48.05
66596;SHT31;59017;49.252;18.838;2022-07-12T03:55:59;22.21;48.09
66596;SHT31;59017;49.252;18.838;2022-07-12T03:58:43;22.23;48.08
66596;SHT31;59017;49.252;18.838;2022-07-12T04:01:09;22.21;48.01
66596;SHT31;59017;49.252;18.838;2022-07-12T04:03:36;22.24;47.87
66596;SHT31;59017;49.252;18.838;2022-07-12T04:06:14;22.21;47.90
66596;SHT31;59017;49.252;18.838;2022-07-12T04:08:43;22.24;47.79
66596;SHT31;59017;49.252;18.838;2022-07-12T04:11:11;22.23;47.76
66596;SHT31;59017;49.252;18.838;2022-07-12T04:13:40;22.23;47.70
66596;SHT31;59017;49.252;18.838;2022-07-12T04:16:19;22.23;47.73
66596;SHT31;59017;49.252;18.838;2022-07-12T04:18:46;22.23;47.67
66596;SHT31;59017;49.252;18.838;2022-07-12T04:21:15;22.23;47.76
66596;SHT31;59017;49.252;18.838;2022-07-12T04:23:52;22.23;47.71
66596;SHT31;59017;49.252;18.838;2022-07-12T04:26:33;22.23;47.62
66596;SHT31;59017;49.252;18.838;2022-07-12T04:29:11;22.21;47.67
66596;SHT31;59017;49.252;18.838;2022-07-12T04:31:37;22.23;47.63
66596;SHT31;59017;49.252;18.838;2022-07-12T04:34:10;22.21;47.61
66596;SHT31;59017;49.252;18.838;2022-07-12T04:36:45;22.24;47.79
66596;SHT31;59017;49.252;18.838;2022-07-12T04:39:23;22.23;47.86
66596;SHT31;59017;49.252;18.838;2022-07-12T04:41:55;22.24;47.79
66596;SHT31;59017;49.252;18.838;2022-07-12T04:44:32;22.23;47.87
66596;SHT31;59017;49.252;18.838;2022-07-12T04:47:04;22.24;47.81
66596;SHT31;59017;49.252;18.838;2022-07-12T04:50:04;22.25;47.76
66596;SHT31;59017;49.252;18.838;2022-07-12T04:52:42;22.27;47.75
66596;SHT31;59017;49.252;18.838;2022-07-12T04:55:18;22.30;47.85
66596;SHT31;59017;49.252;18.838;2022-07-12T05:01:10;22.30;47.79
66596;SHT31;59017;49.252;18.838;2022-07-12T05:03:43;22.30;47.83
66596;SHT31;59017;49.252;18.838;2022-07-12T05:06:10;22.29;47.78
66596;SHT31;59017;49.252;18.838;2022-07-12T05:08:43;22.31;47.76
66596;SHT31;59017;49.252;18.838;2022-07-12T05:11:13;22.30;47.72
66596;SHT31;59017;49.252;18.838;2022-07-12T05:13:43;22.30;47.77
66596;SHT31;59017;49.252;18.838;2022-07-12T05:16:15;22.33;47.78
66596;SHT31;59017;49.252;18.838;2022-07-12T05:19:08;22.31;47.84
66596;SHT31;59017;49.252;18.838;2022-07-12T05:21:40;22.31;47.77
66596;SHT31;59017;49.252;18.838;2022-07-12T05:24:09;22.33;47.77
66596;SHT31;59017;49.252;18.838;2022-07-12T05:26:35;22.34;47.76
66596;SHT31;59017;49.252;18.838;2022-07-12T05:29:01;22.34;47.80
66596;SHT31;59017;49.252;18.838;2022-07-12T05:34:47;22.33;47.90
66596;SHT31;59017;49.252;18.838;2022-07-12T05:40:59;22.34;47.99
66596;SHT31;59017;49.252;18.838;2022-07-12T05:43:35;22.36;48.02
66596;SHT31;59017;49.252;18.838;2022-07-12T05:46:10;22.34;47.99
66596;SHT31;59017;49.252;18.838;2022-07-12T05:48:41;22.36;48.00
66596;SHT31;59017;49.252;18.838;2022-07-12T05:51:10;22.37;48.07
66596;SHT31;59017;49.252;18.838;2022-07-12T05:54:03;22.36;48.06
66596;SHT31;59017;49.252;18.838;2022-07-12T06:00:17;22.39;48.07
66596;SHT31;59017;49.252;18.838;2022-07-12T06:03:18;22.40;48.09
66596;SHT31;59017;49.252;18.838;2022-07-12T06:05:47;22.40;48.11
66596;SHT31;59017;49.252;18.838;2022-07-12T06:08:33;22.39;48.13
66596;SHT31;59017;49.252;18.838;2022-07-12T06:11:06;22.41;48.16
66596;SHT31;59017;49.252;18.838;2022-07-12T06:13:56;22.41;48.13
66596;SHT31;59017;49.252;18.838;2022-07-12T06:16:30;22.43;48.14
66596;SHT31;59017;49.252;18.838;2022-07-12T06:19:01;22.45;48.11
66596;SHT31;59017;49.252;18.838;2022-07-12T06:21:29;22.52;47.97
66596;SHT31;59017;49.252;18.838;2022-07-12T06:24:12;22.55;47.82
66596;SHT31;59017;49.252;18.838;2022-07-12T06:26:45;22.62;47.72
66596;SHT31;59017;49.252;18.838;2022-07-12T06:29:10;22.64;47.73
66596;SHT31;59017;49.252;18.838;2022-07-12T06:31:42;22.71;47.70
66596;SHT31;59017;49.252;18.838;2022-07-12T06:34:20;22.71;47.68
66596;SHT31;59017;49.252;18.838;2022-07-12T06:36:48;22.75;47.67
66596;SHT31;59017;49.252;18.838;2022-07-12T06:39:24;22.79;47.56
66596;SHT31;59017;49.252;18.838;2022-07-12T06:41:52;22.84;47.45
66596;SHT31;59017;49.252;18.838;2022-07-12T06:44:38;22.85;47.45
66596;SHT31;59017;49.252;18.838;2022-07-12T06:47:05;22.88;47.46
66596;SHT31;59017;49.252;18.838;2022-07-12T06:49:36;22.89;47.53
66596;SHT31;59017;49.252;18.838;2022-07-12T06:52:42;22.92;47.54
66596;SHT31;59017;49.252;18.838;2022-07-12T06:55:21;22.95;47.43
66596;SHT31;59017;49.252;18.838;2022-07-12T06:58:09;22.91;47.50
66596;SHT31;59017;49.252;18.838;2022-07-12T07:00:37;22.96;47.41
66596;SHT31;59017;49.252;18.838;2022-07-12T07:03:18;22.98;47.27
66596;SHT31;59017;49.252;18.838;2022-07-12T07:05:44;23.02;47.27
66596;SHT31;59017;49.252;18.838;2022-07-12T07:08:20;23.05;47.05
66596;SHT31;59017;49.252;18.838;2022-07-12T07:10:51;23.07;46.96
66596;SHT31;59017;49.252;18.838;2022-07-12T07:13:24;23.09;46.95
66596;SHT31;59017;49.252;18.838;2022-07-12T07:15:54;23.09;46.74
66596;SHT31;59017;49.252;18.838;2022-07-12T07:18:21;23.07;46.59
66596;SHT31;59017;49.252;18.838;2022-07-12T07:24:11;23.07;46.64
66596;SHT31;59017;49.252;18.838;2022-07-12T07:26:38;23.07;46.53
66596;SHT31;59017;49.252;18.838;2022-07-12T07:29:07;23.02;46.51
66596;SHT31;59017;49.252;18.838;2022-07-12T07:31:52;23.00;46.48
66596;SHT31;59017;49.252;18.838;2022-07-12T07:34:20;23.00;46.53
66596;SHT31;59017;49.252;18.838;2022-07-12T07:36:51;22.96;46.47
66596;SHT31;59017;49.252;18.838;2022-07-12T07:39:31;22.99;46.41
66596;SHT31;59017;49.252;18.838;2022-07-12T07:42:04;22.95;46.38
66596;SHT31;59017;49.252;18.838;2022-07-12T07:44:43;22.99;46.29
66596;SHT31;59017;49.252;18.838;2022-07-12T07:47:20;23.03;46.13
66596;SHT31;59017;49.252;18.838;2022-07-12T07:49:54;23.05;45.95
66596;SHT31;59017;49.252;18.838;2022-07-12T07:52:22;22.89;45.67
66596;SHT31;59017;49.252;18.838;2022-07-12T07:54:48;22.75;44.64
66596;SHT31;59017;49.252;18.838;2022-07-12T07:57:14;22.67;44.32
66596;SHT31;59017;49.252;18.838;2022-07-12T07:59:39;22.62;44.34
66596;SHT31;59017;49.252;18.838;2022-07-12T08:02:05;22.64;43.91
66596;SHT31;59017;49.252;18.838;2022-07-12T08:04:32;22.52;43.42
66596;SHT31;59017;49.252;18.838;2022-07-12T08:07:00;22.51;42.86
66596;SHT31;59017;49.252;18.838;2022-07-12T08:09:39;22.54;42.44
66596;SHT31;59017;49.252;18.838;2022-07-12T08:12:14;22.65;42.53
66596;SHT31;59017;49.252;18.838;2022-07-12T08:14:42;22.54;42.13
66596;SHT31;59017;49.252;18.838;2022-07-12T08:17:08;22.41;42.30
66596;SHT31;59017;49.252;18.838;2022-07-12T08:19:34;22.50;42.44
66596;SHT31;59017;49.252;18.838;2022-07-12T08:22:02;22.54;41.77
66596;SHT31;59017;49.252;18.838;2022-07-12T08:24:34;22.43;42.13
66596;SHT31;59017;49.252;18.838;2022-07-12T08:27:00;22.36;42.01
66596;SHT31;59017;49.252;18.838;2022-07-12T08:29:26;22.39;42.28
66596;SHT31;59017;49.252;18.838;2022-07-12T08:31:51;22.36;42.48
66596;SHT31;59017;49.252;18.838;2022-07-12T08:34:20;22.36;42.19
66596;SHT31;59017;49.252;18.838;2022-07-12T08:36:45;22.43;42.01
66596;SHT31;59017;49.252;18.838;2022-07-12T08:39:11;22.29;41.06
66596;SHT31;59017;49.252;18.838;2022-07-12T08:41:36;22.30;41.14
66596;SHT31;59017;49.252;18.838;2022-07-12T08:44:02;22.31;41.19
66596;SHT31;59017;49.252;18.838;2022-07-12T08:46:27;22.36;41.50
66596;SHT31;59017;49.252;18.838;2022-07-12T08:48:53;22.34;41.31
66596;SHT31;59017;49.252;18.838;2022-07-12T08:51:20;22.36;41.35
66596;SHT31;59017;49.252;18.838;2022-07-12T08:53:47;22.40;41.60
66596;SHT31;59017;49.252;18.838;2022-07-12T08:56:34;22.47;41.22
66596;SHT31;59017;49.252;18.838;2022-07-12T08:59:17;22.34;40.89
66596;SHT31;59017;49.252;18.838;2022-07-12T09:01:48;22.40;40.91
66596;SHT31;59017;49.252;18.838;2022-07-12T09:04:19;22.44;40.51
66596;SHT31;59017;49.252;18.838;2022-07-12T09:06:45;22.39;40.59
66596;SHT31;59017;49.252;18.838;2022-07-12T09:09:11;22.37;40.58
66596;SHT31;59017;49.252;18.838;2022-07-12T09:11:49;22.34;40.36
66596;SHT31;59017;49.252;18.838;2022-07-12T09:14:19;22.29;39.90
66596;SHT31;59017;49.252;18.838;2022-07-12T09:17:01;22.29;39.64
66596;SHT31;59017;49.252;18.838;2022-07-12T09:19:28;22.40;39.78
66596;SHT31;59017;49.252;18.838;2022-07-12T09:21:56;22.48;40.02
66596;SHT31;59017;49.252;18.838;2022-07-12T09:24:25;22.58;40.27
66596;SHT31;59017;49.252;18.838;2022-07-12T09:27:23;22.61;40.19
66596;SHT31;59017;49.252;18.838;2022-07-12T09:29:50;22.64;40.32
66596;SHT31;59017;49.252;18.838;2022-07-12T09:32:16;22.67;40.36
66596;SHT31;59017;49.252;18.838;2022-07-12T09:35:00;22.61;40.42
66596;SHT31;59017;49.252;18.838;2022-07-12T09:37:44;22.51;40.32
66596;SHT31;59017;49.252;18.838;2022-07-12T09:40:10;22.50;40.03
66596;SHT31;59017;49.252;18.838;2022-07-12T09:42:37;22.51;39.89
66596;SHT31;59017;49.252;18.838;2022-07-12T09:45:05;22.57;40.24
66596;SHT31;59017;49.252;18.838;2022-07-12T09:47:32;22.72;40.51
66596;SHT31;59017;49.252;18.838;2022-07-12T09:49:58;22.82;40.44
66596;SHT31;59017;49.252;18.838;2022-07-12T09:52:27;22.86;40.66
66596;SHT31;59017;49.252;18.838;2022-07-12T09:54:55;22.94;40.81
66596;SHT31;59017;49.252;18.838;2022-07-12T09:57:32;23.02;40.79
66596;SHT31;59017;49.252;18.838;2022-07-12T09:59:59;23.07;41.04
66596;SHT31;59017;49.252;18.838;2022-07-12T10:02:26;23.12;41.07
66596;SHT31;59017;49.252;18.838;2022-07-12T10:04:52;23.15;41.08
66596;SHT31;59017;49.252;18.838;2022-07-12T10:07:17;23.17;41.24
66596;SHT31;59017;49.252;18.838;2022-07-12T10:09:45;23.19;41.29
66596;SHT31;59017;49.252;18.838;2022-07-12T10:12:14;23.23;41.33
66596;SHT31;59017;49.252;18.838;2022-07-12T10:14:41;23.26;41.41
66596;SHT31;59017;49.252;18.838;2022-07-12T10:17:08;23.31;41.44
66596;SHT31;59017;49.252;18.838;2022-07-12T10:19:38;23.34;41.49
66596;SHT31;59017;49.252;18.838;2022-07-12T10:22:05;23.39;41.52
66596;SHT31;59017;49.252;18.838;2022-07-12T10:29:52;23.47;41.69
66596;SHT31;59017;49.252;18.838;2022-07-12T10:35:05;23.50;41.72
66596;SHT31;59017;49.252;18.838;2022-07-12T10:37:33;23.53;41.74
66596;SHT31;59017;49.252;18.838;2022-07-12T10:40:25;23.50;41.95
66596;SHT31;59017;49.252;18.838;2022-07-12T10:45:40;23.53;42.02
66596;SHT31;59017;49.252;18.838;2022-07-12T10:48:23;23.51;42.16
66596;SHT31;59017;49.252;18.838;2022-07-12T10:50:52;23.53;42.11
66596;SHT31;59017;49.252;18.838;2022-07-12T10:53:31;23.57;42.00
66596;SHT31;59017;49.252;18.838;2022-07-12T10:56:08;23.60;42.00
66596;SHT31;59017;49.252;18.838;2022-07-12T10:58:55;23.58;42.07
66596;SHT31;59017;49.252;18.838;2022-07-12T11:01:35;23.58;42.10
66596;SHT31;59017;49.252;18.838;2022-07-12T11:04:07;23.58;42.00
66596;SHT31;59017;49.252;18.838;2022-07-12T11:06:40;23.55;42.00
66596;SHT31;59017;49.252;18.838;2022-07-12T11:09:11;23.58;41.99
66596;SHT31;59017;49.252;18.838;2022-07-12T11:11:47;23.60;41.89
66596;SHT31;59017;49.252;18.838;2022-07-12T11:14:24;23.61;41.76
66596;SHT31;59017;49.252;18.838;2022-07-12T11:16:51;23.64;41.78
66596;SHT31;59017;49.252;18.838;2022-07-12T11:19:21;23.63;41.72
66596;SHT31;59017;49.252;18.838;2022-07-12T11:21:48;23.67;41.73
66596;SHT31;59017;49.252;18.838;2022-07-12T11:24:24;23.70;41.70
66596;SHT31;59017;49.252;18.838;2022-07-12T11:26:51;23.71;41.66
66596;SHT31;59017;49.252;18.838;2022-07-12T11:29:20;23.75;41.69
66596;SHT31;59017;49.252;18.838;2022-07-12T11:31:46;23.73;41.78
66596;SHT31;59017;49.252;18.838;2022-07-12T11:34:24;23.73;41.75
66596;SHT31;59017;49.252;18.838;2022-07-12T11:36:54;23.74;41.69
66596;SHT31;59017;49.252;18.838;2022-07-12T11:39:38;23.73;41.71
66596;SHT31;59017;49.252;18.838;2022-07-12T11:42:04;23.73;41.58
66596;SHT31;59017;49.252;18.838;2022-07-12T11:44:46;23.73;41.58
66596;SHT31;59017;49.252;18.838;2022-07-12T11:47:12;23.74;41.63
66596;SHT31;59017;49.252;18.838;2022-07-12T11:49:48;23.75;41.56
66596;SHT31;59017;49.252;18.838;2022-07-12T11:52:15;23.77;41.47
66596;SHT31;59017;49.252;18.838;2022-07-12T11:54:43;23.81;41.38
66596;SHT31;59017;49.252;18.838;2022-07-12T11:57:10;23.81;41.43
66596;SHT31;59017;49.252;18.838;2022-07-12T11:59:36;23.85;41.41
66596;SHT31;59017;49.252;18.838;2022-07-12T12:02:11;23.82;41.27
66596;SHT31;59017;49.252;18.838;2022-07-12T12:04:54;23.86;41.29
66596;SHT31;59017;49.252;18.838;2022-07-12T12:07:25;23.85;41.22
66596;SHT31;59017;49.252;18.838;2022-07-12T12:10:01;23.84;41.30
66596;SHT31;59017;49.252;18.838;2022-07-12T12:15:08;23.86;41.06
66596;SHT31;59017;49.252;18.838;2022-07-12T12:17:42;23.86;40.28
66596;SHT31;59017;49.252;18.838;2022-07-12T12:20:13;23.65;36.03
66596;SHT31;59017;49.252;18.838;2022-07-12T12:22:39;23.60;36.83
66596;SHT31;59017;49.252;18.838;2022-07-12T12:25:05;23.60;36.25
66596;SHT31;59017;49.252;18.838;2022-07-12T12:27:32;23.57;35.98
66596;SHT31;59017;49.252;18.838;2022-07-12T12:30:04;23.51;35.63
66596;SHT31;59017;49.252;18.838;2022-07-12T12:32:29;23.51;34.85
66596;SHT31;59017;49.252;18.838;2022-07-12T12:35:08;23.50;34.92
66596;SHT31;59017;49.252;18.838;2022-07-12T12:37:34;23.42;34.72
66596;SHT31;59017;49.252;18.838;2022-07-12T12:40:05;23.39;34.79
66596;SHT31;59017;49.252;18.838;2022-07-12T12:42:45;23.42;35.22
66596;SHT31;59017;49.252;18.838;2022-07-12T12:45:25;23.34;35.14
66596;SHT31;59017;49.252;18.838;2022-07-12T12:47:57;23.30;34.95
66596;SHT31;59017;49.252;18.838;2022-07-12T12:50:44;23.30;34.81
66596;SHT31;59017;49.252;18.838;2022-07-12T12:53:15;23.34;34.22
66596;SHT31;59017;49.252;18.838;2022-07-12T12:55:43;23.31;34.75
66596;SHT31;59017;49.252;18.838;2022-07-12T12:58:11;23.26;34.69
66596;SHT31;59017;49.252;18.838;2022-07-12T13:00:39;23.28;35.02
66596;SHT31;59017;49.252;18.838;2022-07-12T13:03:09;23.19;34.74
66596;SHT31;59017;49.252;18.838;2022-07-12T13:05:37;23.17;34.81
66596;SHT31;59017;49.252;18.838;2022-07-12T13:08:25;23.15;35.25
66596;SHT31;59017;49.252;18.838;2022-07-12T13:10:53;23.22;35.04
66596;SHT31;59017;49.252;18.838;2022-07-12T13:13:38;23.16;35.64
66596;SHT31;59017;49.252;18.838;2022-07-12T13:16:04;23.23;35.62
66596;SHT31;59017;49.252;18.838;2022-07-12T13:18:30;23.28;35.88
66596;SHT31;59017;49.252;18.838;2022-07-12T13:20:55;23.33;35.87
66596;SHT31;59017;49.252;18.838;2022-07-12T13:23:21;23.39;35.95
66596;SHT31;59017;49.252;18.838;2022-07-12T13:25:46;23.42;36.14
66596;SHT31;59017;49.252;18.838;2022-07-12T13:28:12;23.44;36.16
66596;SHT31;59017;49.252;18.838;2022-07-12T13:30:37;23.43;36.52
66596;SHT31;59017;49.252;18.838;2022-07-12T13:33:03;23.49;36.63
66596;SHT31;59017;49.252;18.838;2022-07-12T13:35:28;23.51;36.67
66596;SHT31;59017;49.252;18.838;2022-07-12T13:37:57;23.54;36.74
66596;SHT31;59017;49.252;18.838;2022-07-12T13:40:23;23.57;36.85
66596;SHT31;59017;49.252;18.838;2022-07-12T13:42:52;23.57;37.29
66596;SHT31;59017;49.252;18.838;2022-07-12T13:45:20;23.58;37.32
66596;SHT31;59017;49.252;18.838;2022-07-12T13:47:47;23.64;37.45
66596;SHT31;59017;49.252;18.838;2022-07-12T13:50:14;23.64;37.24
66596;SHT31;59017;49.252;18.838;2022-07-12T13:52:41;23.65;37.24
66596;SHT31;59017;49.252;18.838;2022-07-12T13:55:08;23.68;37.41
66596;SHT31;59017;49.252;18.838;2022-07-12T13:57:38;23.67;37.30
66596;SHT31;59017;49.252;18.838;2022-07-12T14:00:06;23.67;37.56
66596;SHT31;59017;49.252;18.838;2022-07-12T14:02:35;23.67;37.51
66596;SHT31;59017;49.252;18.838;2022-07-12T14:05:03;23.65;37.66
66596;SHT31;59017;49.252;18.838;2022-07-12T14:07:30;23.68;37.51
66596;SHT31;59017;49.252;18.838;2022-07-12T14:09:55;23.63;37.35
66596;SHT31;59017;49.252;18.838;2022-07-12T14:12:21;23.64;37.47
66596;SHT31;59017;49.252;18.838;2022-07-12T14:14:46;23.61;37.67
66596;SHT31;59017;49.252;18.838;2022-07-12T14:17:30;23.58;37.80
66596;SHT31;59017;49.252;18.838;2022-07-12T14:20:09;23.54;37.63
66596;SHT31;59017;49.252;18.838;2022-07-12T14:22:35;23.54;37.72
66596;SHT31;59017;49.252;18.838;2022-07-12T14:25:00;23.57;37.80
66596;SHT31;59017;49.252;18.838;2022-07-12T14:27:26;23.55;37.94
66596;SHT31;59017;49.252;18.838;2022-07-12T14:29:52;23.55;38.06
66596;SHT31;59017;49.252;18.838;2022-07-12T14:32:17;23.57;38.00
66596;SHT31;59017;49.252;18.838;2022-07-12T14:34:43;23.58;37.88
66596;SHT31;59017;49.252;18.838;2022-07-12T14:37:09;23.64;37.98
66596;SHT31;59017;49.252;18.838;2022-07-12T14:39:35;23.65;38.12
66596;SHT31;59017;49.252;18.838;2022-07-12T14:42:00;23.67;37.98
66596;SHT31;59017;49.252;18.838;2022-07-12T14:44:26;23.73;38.21
66596;SHT31;59017;49.252;18.838;2022-07-12T14:46:52;23.73;38.11
66596;SHT31;59017;49.252;18.838;2022-07-12T14:49:22;23.74;38.15
66596;SHT31;59017;49.252;18.838;2022-07-12T14:51:48;23.74;38.11
66596;SHT31;59017;49.252;18.838;2022-07-12T14:54:15;23.74;38.23
66596;SHT31;59017;49.252;18.838;2022-07-12T14:56:41;23.75;38.10
66596;SHT31;59017;49.252;18.838;2022-07-12T14:59:06;23.78;38.00
66596;SHT31;59017;49.252;18.838;2022-07-12T15:01:39;23.81;38.03
66596;SHT31;59017;49.252;18.838;2022-07-12T15:04:05;23.82;38.23
66596;SHT31;59017;49.252;18.838;2022-07-12T15:06:30;23.82;38.12
66596;SHT31;59017;49.252;18.838;2022-07-12T15:08:56;23.84;38.18
66596;SHT31;59017;49.252;18.838;2022-07-12T15:11:22;23.79;38.24
66596;SHT31;59017;49.252;18.838;2022-07-12T15:13:49;23.82;38.33
66596;SHT31;59017;49.252;18.838;2022-07-12T15:16:14;23.84;38.57
66596;SHT31;59017;49.252;18.838;2022-07-12T15:18:40;23.84;38.58
66596;SHT31;59017;49.252;18.838;2022-07-12T15:21:06;23.85;38.57
66596;SHT31;59017;49.252;18.838;2022-07-12T15:23:31;23.85;38.71
66596;SHT31;59017;49.252;18.838;2022-07-12T15:26:01;23.88;38.70
66596;SHT31;59017;49.252;18.838;2022-07-12T15:28:28;23.84;38.89
66596;SHT31;59017;49.252;18.838;2022-07-12T15:30:59;23.85;39.03
66596;SHT31;59017;49.252;18.838;2022-07-12T15:33:25;23.79;39.10
66596;SHT31;59017;49.252;18.838;2022-07-12T15:36:01;23.82;39.07
66596;SHT31;59017;49.252;18.838;2022-07-12T15:38:26;23.81;39.23
66596;SHT31;59017;49.252;18.838;2022-07-12T15:40:52;23.78;39.35
66596;SHT31;59017;49.252;18.838;2022-07-12T15:43:18;23.77;39.29
66596;SHT31;59017;49.252;18.838;2022-07-12T15:45:43;23.77;39.32
66596;SHT31;59017;49.252;18.838;2022-07-12T15:48:09;23.78;39.42
66596;SHT31;59017;49.252;18.838;2022-07-12T15:50:34;23.78;39.48
66596;SHT31;59017;49.252;18.838;2022-07-12T15:53:00;23.77;39.68
66596;SHT31;59017;49.252;18.838;2022-07-12T15:55:44;23.78;39.75
66596;SHT31;59017;49.252;18.838;2022-07-12T15:58:09;23.78;39.90
66596;SHT31;59017;49.252;18.838;2022-07-12T16:00:35;23.78;39.97
66596;SHT31;59017;49.252;18.838;2022-07-12T16:03:01;23.81;40.07
66596;SHT31;59017;49.252;18.838;2022-07-12T16:05:26;23.85;40.21
66596;SHT31;59017;49.252;18.838;2022-07-12T16:07:52;23.85;40.27
66596;SHT31;59017;49.252;18.838;2022-07-12T16:10:18;23.84;40.26
66596;SHT31;59017;49.252;18.838;2022-07-12T16:12:43;23.82;40.29
66596;SHT31;59017;49.252;18.838;2022-07-12T16:15:10;23.82;40.32
66596;SHT31;59017;49.252;18.838;2022-07-12T16:17:35;23.85;40.38
66596;SHT31;59017;49.252;18.838;2022-07-12T16:20:01;23.88;40.54
66596;SHT31;59017;49.252;18.838;2022-07-12T16:22:27;23.92;40.50
66596;SHT31;59017;49.252;18.838;2022-07-12T16:24:52;23.91;40.69
66596;SHT31;59017;49.252;18.838;2022-07-12T16:27:19;23.92;40.97
66596;SHT31;59017;49.252;18.838;2022-07-12T16:29:44;23.91;41.23
66596;SHT31;59017;49.252;18.838;2022-07-12T16:32:10;23.86;41.29
66596;SHT31;59017;49.252;18.838;2022-07-12T16:34:35;23.88;41.53
66596;SHT31;59017;49.252;18.838;2022-07-12T16:37:01;23.88;41.54
66596;SHT31;59017;49.252;18.838;2022-07-12T16:39:27;23.77;41.94
66596;SHT31;59017;49.252;18.838;2022-07-12T16:41:52;23.73;42.02
66596;SHT31;59017;49.252;18.838;2022-07-12T16:44:18;23.75;41.96
66596;SHT31;59017;49.252;18.838;2022-07-12T16:46:44;23.73;42.00
66596;SHT31;59017;49.252;18.838;2022-07-12T16:49:09;23.77;41.97
66596;SHT31;59017;49.252;18.838;2022-07-12T16:51:35;23.78;42.12
66596;SHT31;59017;49.252;18.838;2022-07-12T16:54:01;23.75;42.03
66596;SHT31;59017;49.252;18.838;2022-07-12T16:56:30;23.73;42.17
66596;SHT31;59017;49.252;18.838;2022-07-12T16:58:57;23.73;42.34
66596;SHT31;59017;49.252;18.838;2022-07-12T17:01:24;23.73;42.28
66596;SHT31;59017;49.252;18.838;2022-07-12T17:03:51;23.73;42.50
66596;SHT31;59017;49.252;18.838;2022-07-12T17:06:17;23.73;42.48
66596;SHT31;59017;49.252;18.838;2022-07-12T17:08:43;23.73;41.70
66596;SHT31;59017;49.252;18.838;2022-07-12T17:11:10;23.68;40.97
66596;SHT31;59017;49.252;18.838;2022-07-12T17:13:36;23.68;40.38
66596;SHT31;59017;49.252;18.838;2022-07-12T17:16:03;23.64;39.94
66596;SHT31;59017;49.252;18.838;2022-07-12T17:18:29;23.64;39.85
66596;SHT31;59017;49.252;18.838;2022-07-12T17:20:55;23.65;39.24
66596;SHT31;59017;49.252;18.838;2022-07-12T17:23:20;23.63;38.93
66596;SHT31;59017;49.252;18.838;2022-07-12T17:25:46;23.61;38.98
66596;SHT31;59017;49.252;18.838;2022-07-12T17:28:14;23.61;39.10
66596;SHT31;59017;49.252;18.838;2022-07-12T17:30:40;23.67;39.24
66596;SHT31;59017;49.252;18.838;2022-07-12T17:33:06;23.68;39.44
66596;SHT31;59017;49.252;18.838;2022-07-12T17:35:35;23.73;39.52
66596;SHT31;59017;49.252;18.838;2022-07-12T17:38:01;23.73;39.68
66596;SHT31;59017;49.252;18.838;2022-07-12T17:40:26;23.73;39.28
66596;SHT31;59017;49.252;18.838;2022-07-12T17:42:53;23.73;39.58
66596;SHT31;59017;49.252;18.838;2022-07-12T17:45:18;23.73;39.66
66596;SHT31;59017;49.252;18.838;2022-07-12T17:47:44;23.78;39.71
66596;SHT31;59017;49.252;18.838;2022-07-12T17:50:09;23.77;39.64
66596;SHT31;59017;49.252;18.838;2022-07-12T17:52:43;23.77;39.48
66596;SHT31;59017;49.252;18.838;2022-07-12T17:55:10;23.75;39.58
66596;SHT31;59017;49.252;18.838;2022-07-12T17:57:36;23.74;39.62
66596;SHT31;59017;49.252;18.838;2022-07-12T18:00:03;23.73;39.74
66596;SHT31;59017;49.252;18.838;2022-07-12T18:02:29;23.68;39.79
66596;SHT31;59017;49.252;18.838;2022-07-12T18:04:54;23.70;39.93
66596;SHT31;59017;49.252;18.838;2022-07-12T18:07:20;23.70;40.18
66596;SHT31;59017;49.252;18.838;2022-07-12T18:09:46;23.68;41.73
66596;SHT31;59017;49.252;18.838;2022-07-12T18:12:11;23.67;41.96
66596;SHT31;59017;49.252;18.838;2022-07-12T18:14:55;23.64;42.10
66596;SHT31;59017;49.252;18.838;2022-07-12T18:17:21;23.64;42.12
66596;SHT31;59017;49.252;18.838;2022-07-12T18:20:06;23.61;42.30
66596;SHT31;59017;49.252;18.838;2022-07-12T18:22:32;23.61;42.51
66596;SHT31;59017;49.252;18.838;2022-07-12T18:24:58;23.60;43.24
66596;SHT31;59017;49.252;18.838;2022-07-12T18:27:24;23.58;43.25
66596;SHT31;59017;49.252;18.838;2022-07-12T18:29:51;23.58;42.75
66596;SHT31;59017;49.252;18.838;2022-07-12T18:32:19;23.60;42.69
66596;SHT31;59017;49.252;18.838;2022-07-12T18:34:44;23.50;42.54
66596;SHT31;59017;49.252;18.838;2022-07-12T18:37:12;23.46;43.05
66596;SHT31;59017;49.252;18.838;2022-07-12T18:39:39;23.46;43.92
66596;SHT31;59017;49.252;18.838;2022-07-12T18:42:05;23.44;44.51
66596;SHT31;59017;49.252;18.838;2022-07-12T18:44:35;23.50;44.06
66596;SHT31;59017;49.252;18.838;2022-07-12T18:47:02;23.51;43.77
66596;SHT31;59017;49.252;18.838;2022-07-12T18:49:27;23.49;44.34
66596;SHT31;59017;49.252;18.838;2022-07-12T18:51:53;23.50;44.14
66596;SHT31;59017;49.252;18.838;2022-07-12T18:54:19;23.51;44.08
66596;SHT31;59017;49.252;18.838;2022-07-12T18:56:44;23.50;44.11
66596;SHT31;59017;49.252;18.838;2022-07-12T18:59:10;23.47;44.47
66596;SHT31;59017;49.252;18.838;2022-07-12T19:01:35;23.54;44.08
66596;SHT31;59017;49.252;18.838;2022-07-12T19:04:01;23.54;44.41
66596;SHT31;59017;49.252;18.838;2022-07-12T19:06:27;23.53;44.97
66596;SHT31;59017;49.252;18.838;2022-07-12T19:08:52;23.53;45.92
66596;SHT31;59017;49.252;18.838;2022-07-12T19:11:18;23.51;46.05
66596;SHT31;59017;49.252;18.838;2022-07-12T19:13:43;23.50;46.73
66596;SHT31;59017;49.252;18.838;2022-07-12T19:16:09;23.49;48.05
66596;SHT31;59017;49.252;18.838;2022-07-12T19:18:35;23.44;49.37
66596;SHT31;59017;49.252;18.838;2022-07-12T19:21:01;23.47;48.96